^^
No Wait Weather (KNEBELLE1) Station Historical Data
Daily Summary for May 26, 2019 Units:  English    Metric   Both
Daily Weekly Monthly Yearly Custom
  High: Low: Average:
Temperature: 81.8 °F 57.2 °F 69.7 °F
Dew Point: 66.77 °F 50.57 °F 60 °F
Humidity: 95% 53% 73%
Wind Speed: 5mph 0mph 0.1mph
Wind Gust: 10mph - -
Wind- - SSW
Pressure: 29.92 in 29.72 in -
Precipitation: 0.58 in    
Historical Graphs
 
 
Tabular Data for May 26, 2019
Time Temperature Dew Point Pressure Wind Wind Speed Wind Gust Humidity Rainfall Rate (Hourly) solar
00:04 67.6 °F 54.55 °F 29.79 in Calm   3 mph 63% 0 in WeatherCatV3.04B91 W/m2
00:09 67.6 °F 54.55 °F 29.79 in Calm   2 mph 63% 0 in WeatherCatV3.04B91 W/m2
00:14 67.6 °F 54.55 °F 29.81 in Calm     63% 0 in WeatherCatV3.04B91 W/m2
00:19 67.6 °F 54.11 °F 29.81 in Calm   3 mph 62% 0 in WeatherCatV3.04B91 W/m2
00:24 67.6 °F 53.66 °F 29.81 in Calm     61% 0 in WeatherCatV3.04B91 W/m2
00:29 67.4 °F 52.56 °F 29.81 in Calm     59% 0 in WeatherCatV3.04B91 W/m2
00:34 67.4 °F 52.1 °F 29.81 in Calm   2 mph 58% 0 in WeatherCatV3.04B91 W/m2
00:39 67.4 °F 51.63 °F 29.81 in Calm   3 mph 57% 0 in WeatherCatV3.04B91 W/m2
00:44 67.4 °F 51.15 °F 29.80 in Calm   2 mph 56% 0 in WeatherCatV3.04B91 W/m2
00:49 67.4 °F 51.15 °F 29.80 in Calm     56% 0 in WeatherCatV3.04B91 W/m2
00:54 67.3 °F 50.57 °F 29.80 in Calm     55% 0 in WeatherCatV3.04B91 W/m2
00:59 67.3 °F 51.53 °F 29.83 in Calm     57% 0 in WeatherCatV3.04B91 W/m2
01:04 67.1 °F 52.74 °F 29.83 in Calm     60% 0 in WeatherCatV3.04B91 W/m2
01:09 65.6 °F 53.09 °F 29.83 in Calm   5 mph 64% 0.31 in WeatherCatV3.04B91 W/m2
01:14 63.1 °F 52.76 °F 29.82 in East 3 mph 5 mph 69% 0.73 in WeatherCatV3.04B91 W/m2
01:19 61.3 °F 52.94 °F 29.82 in Calm   4 mph 74% 0.19 in WeatherCatV3.04B91 W/m2
01:24 60.9 °F 54.34 °F 29.82 in Calm   3 mph 79% 0.11 in WeatherCatV3.04B91 W/m2
01:29 60.7 °F 54.83 °F 29.83 in Calm     81% 0.08 in WeatherCatV3.04B91 W/m2
01:34 60.5 °F 55.31 °F 29.83 in Calm     83% 0.05 in WeatherCatV3.04B91 W/m2
01:38 60.4 °F 55.87 °F 29.83 in Calm     85% 0.04 in WeatherCatV3.04B91 W/m2
01:44 60.1 °F 55.89 °F 29.84 in Calm     86% 0 in WeatherCatV3.04B91 W/m2
01:49 59.9 °F 56.02 °F 29.84 in Calm   1 mph 87% 0 in WeatherCatV3.04B91 W/m2
01:54 59.9 °F 56.02 °F 29.84 in Calm     87% 0 in WeatherCatV3.04B91 W/m2
01:59 59.9 °F 56.33 °F 29.84 in Calm     88% 0.16 in WeatherCatV3.04B91 W/m2
02:04 59.8 °F 56.23 °F 29.84 in Calm     88% 0.13 in WeatherCatV3.04B91 W/m2
02:09 59.6 °F 56.04 °F 29.84 in Calm     88% 0.25 in WeatherCatV3.04B91 W/m2
02:14 59.6 °F 56.35 °F 29.84 in Calm     89% 0.08 in WeatherCatV3.04B91 W/m2
02:19 59.5 °F 56.25 °F 29.84 in Calm     89% 0.05 in WeatherCatV3.04B91 W/m2
02:24 59.2 °F 56.27 °F 29.84 in Calm     90% 0 in WeatherCatV3.04B91 W/m2
02:29 58.9 °F 55.97 °F 29.84 in Calm     90% 0 in WeatherCatV3.04B91 W/m2
02:34 58.7 °F 55.77 °F 29.84 in Calm     90% 0 in WeatherCatV3.04B91 W/m2
02:39 58.7 °F 56.08 °F 29.84 in Calm     91% 0 in WeatherCatV3.04B91 W/m2
02:44 58.7 °F 56.08 °F 29.82 in Calm     91% 0 in WeatherCatV3.04B91 W/m2
02:49 58.7 °F 56.08 °F 29.82 in Calm     91% 0 in WeatherCatV3.04B91 W/m2
02:54 58.7 °F 56.08 °F 29.82 in Calm     91% 0 in WeatherCatV3.04B91 W/m2
02:59 58.9 °F 56.27 °F 29.82 in Calm     91% 0 in WeatherCatV3.04B91 W/m2
03:04 58.9 °F 56.27 °F 29.82 in Calm   1 mph 91% 0 in WeatherCatV3.04B91 W/m2
03:09 58.9 °F 56.27 °F 29.82 in Calm     91% 0 in WeatherCatV3.04B91 W/m2
03:14 58.9 °F 56.27 °F 29.82 in Calm     91% 0 in WeatherCatV3.04B91 W/m2
03:19 58.7 °F 56.08 °F 29.82 in Calm     91% 0 in WeatherCatV3.04B91 W/m2
03:24 58.7 °F 55.77 °F 29.82 in Calm     90% 0 in WeatherCatV3.04B91 W/m2
03:29 58.7 °F 55.77 °F 29.82 in Calm     90% 0 in WeatherCatV3.04B91 W/m2
03:34 58.7 °F 55.77 °F 29.82 in Calm     90% 0 in WeatherCatV3.04B91 W/m2
03:39 58.7 °F 55.77 °F 29.82 in Calm     90% 0 in WeatherCatV3.04B91 W/m2
03:44 58.7 °F 55.77 °F 29.82 in Calm     90% 0 in WeatherCatV3.04B91 W/m2
03:49 58.9 °F 55.97 °F 29.82 in Calm     90% 0 in WeatherCatV3.04B91 W/m2
03:54 58.9 °F 55.97 °F 29.82 in Calm     90% 0 in WeatherCatV3.04B91 W/m2
03:59 58.9 °F 55.97 °F 29.83 in Calm     90% 0 in WeatherCatV3.04B91 W/m2
04:04 58.9 °F 55.97 °F 29.83 in Calm     90% 0 in WeatherCatV3.04B91 W/m2
04:09 58.9 °F 55.97 °F 29.83 in Calm     90% 0 in WeatherCatV3.04B91 W/m2
04:14 58.9 °F 55.66 °F 29.83 in Calm     89% 0 in WeatherCatV3.04B91 W/m2
04:19 58.9 °F 55.66 °F 29.83 in Calm     89% 0 in WeatherCatV3.04B91 W/m2
04:24 58.9 °F 55.66 °F 29.83 in Calm   1 mph 89% 0 in WeatherCatV3.04B91 W/m2
04:29 58.7 °F 55.46 °F 29.84 in Calm     89% 0 in WeatherCatV3.04B91 W/m2
04:34 58.7 °F 55.46 °F 29.84 in Calm     89% 0 in WeatherCatV3.04B91 W/m2
04:39 58.6 °F 55.36 °F 29.84 in Calm     89% 0 in WeatherCatV3.04B91 W/m2
04:44 58.6 °F 55.36 °F 29.83 in Calm     89% 0 in WeatherCatV3.04B91 W/m2
04:49 58.4 °F 55.17 °F 29.83 in Calm     89% 0 in WeatherCatV3.04B91 W/m2
04:54 58.1 °F 54.87 °F 29.83 in Calm     89% 0 in WeatherCatV3.04B91 W/m2
04:58 58 °F 54.77 °F 29.83 in Calm     89% 0 in WeatherCatV3.04B91 W/m2
05:04 57.8 °F 54.58 °F 29.84 in Calm     89% 0 in WeatherCatV3.04B91 W/m2
05:09 57.8 °F 54.88 °F 29.84 in Calm     90% 0 in WeatherCatV3.04B91 W/m2
05:14 57.6 °F 54.69 °F 29.84 in Calm     90% 0 in WeatherCatV3.04B91 W/m2
05:19 57.3 °F 54.39 °F 29.84 in Calm     90% 0 in WeatherCatV3.04B91 W/m2
05:24 57.2 °F 54.29 °F 29.84 in Calm     90% 0 in WeatherCatV3.04B91 W/m2
05:29 57.2 °F 54.59 °F 29.82 in Calm     91% 0 in WeatherCatV3.04B91 W/m2
05:34 57.2 °F 54.59 °F 29.82 in Calm     91% 0 in WeatherCatV3.04B91 W/m2
05:39 57.2 °F 54.59 °F 29.82 in Calm     91% 0 in WeatherCatV3.04B91 W/m2
05:44 57.3 °F 54.69 °F 29.84 in Calm     91% 0 in WeatherCatV3.04B91 W/m2
05:49 57.5 °F 54.89 °F 29.84 in Calm     91% 0 in WeatherCatV3.04B91 W/m2
05:54 57.5 °F 54.89 °F 29.84 in Calm     91% 0 in WeatherCatV3.04B91 W/m2
05:59 57.3 °F 54.69 °F 29.84 in Calm     91% 0 in WeatherCatV3.04B91 W/m2
06:04 57.2 °F 54.59 °F 29.84 in Calm     91% 0 in WeatherCatV3.04B91 W/m2
06:09 57.2 °F 54.59 °F 29.84 in Calm     91% 0 in WeatherCatV3.04B91 W/m2
06:14 57.3 °F 54.69 °F 29.84 in Calm     91% 0 in WeatherCatV3.04B91 W/m2
06:19 57.5 °F 54.89 °F 29.84 in Calm     91% 0 in WeatherCatV3.04B91 W/m2
06:24 57.6 °F 54.99 °F 29.84 in Calm     91% 0 in WeatherCatV3.04B91 W/m2
06:28 57.6 °F 54.99 °F 29.84 in Calm     91% 0 in WeatherCatV3.04B91 W/m2
06:34 57.8 °F 54.88 °F 29.85 in Calm     90% 0 in WeatherCatV3.04B91 W/m2
06:39 58 °F 55.08 °F 29.85 in Calm     90% 0 in WeatherCatV3.04B91 W/m2
06:44 58.1 °F 55.18 °F 29.86 in Calm     90% 0 in WeatherCatV3.04B91 W/m2
06:49 58.1 °F 55.18 °F 29.86 in Calm     90% 0 in WeatherCatV3.04B91 W/m2
06:54 58.3 °F 55.38 °F 29.86 in Calm     90% 0 in WeatherCatV3.04B91 W/m2
06:59 58.4 °F 55.17 °F 29.86 in Calm     89% 0 in WeatherCatV3.04B91 W/m2
07:04 58.9 °F 55.66 °F 29.86 in Calm     89% 0 in WeatherCatV3.04B91 W/m2
07:09 59.5 °F 56.56 °F 29.86 in Calm     90% 0 in WeatherCatV3.04B91 W/m2
07:14 60.1 °F 57.15 °F 29.87 in Calm     90% 0 in WeatherCatV3.04B91 W/m2
07:18 60.7 °F 57.75 °F 29.87 in Calm     90% 0 in WeatherCatV3.04B91 W/m2
07:24 61.5 °F 58.22 °F 29.87 in Calm     89% 0 in WeatherCatV3.04B91 W/m2
07:29 62.1 °F 58.81 °F 29.88 in Calm     89% 0 in WeatherCatV3.04B91 W/m2
07:34 62.6 °F 58.67 °F 29.88 in Calm     87% 0 in WeatherCatV3.04B91 W/m2
07:39 62.7 °F 58.12 °F 29.88 in Calm     85% 0 in WeatherCatV3.04B91 W/m2
07:44 63.2 °F 58.61 °F 29.89 in Calm     85% 0 in WeatherCatV3.04B91 W/m2
07:49 63.5 °F 58.24 °F 29.89 in Calm     83% 0 in WeatherCatV3.04B91 W/m2
07:54 64 °F 58.39 °F 29.89 in Calm     82% 0 in WeatherCatV3.04B91 W/m2
07:59 64.3 °F 58.34 °F 29.90 in Calm     81% 0 in WeatherCatV3.04B91 W/m2
08:04 64.5 °F 57.84 °F 29.90 in Calm     79% 0 in WeatherCatV3.04B91 W/m2
08:09 65 °F 57.61 °F 29.90 in Calm     77% 0 in WeatherCatV3.04B91 W/m2
08:14 65.2 °F 57.44 °F 29.90 in Calm   1 mph 76% 0 in WeatherCatV3.04B91 W/m2
08:19 65.3 °F 57.53 °F 29.90 in Calm     76% 0 in WeatherCatV3.04B91 W/m2
08:24 65.8 °F 57.65 °F 29.90 in Calm   1 mph 75% 0 in WeatherCatV3.04B91 W/m2
08:29 66 °F 57.09 °F 29.90 in Calm   4 mph 73% 0 in WeatherCatV3.04B91 W/m2
08:34 66.1 °F 57.18 °F 29.90 in Calm     73% 0 in WeatherCatV3.04B91 W/m2
08:39 66.4 °F 57.09 °F 29.90 in Calm     72% 0 in WeatherCatV3.04B91 W/m2
08:44 66.8 °F 57.47 °F 29.90 in Calm     72% 0 in WeatherCatV3.04B91 W/m2
08:49 67.1 °F 57.76 °F 29.90 in Calm     72% 0 in WeatherCatV3.04B91 W/m2
08:54 67.4 °F 57.66 °F 29.90 in Calm     71% 0 in WeatherCatV3.04B91 W/m2
08:59 67.6 °F 57.46 °F 29.90 in Calm   3 mph 70% 0 in WeatherCatV3.04B91 W/m2
09:04 67.3 °F 57.56 °F 29.90 in Calm     71% 0 in WeatherCatV3.04B91 W/m2
09:09 67.1 °F 57.37 °F 29.90 in Calm   1 mph 71% 0 in WeatherCatV3.04B91 W/m2
09:14 67.1 °F 57.76 °F 29.90 in Calm     72% 0 in WeatherCatV3.04B91 W/m2
09:19 67.1 °F 57.76 °F 29.90 in Calm     72% 0 in WeatherCatV3.04B91 W/m2
09:24 66.9 °F 57.57 °F 29.90 in Calm   2 mph 72% 0 in WeatherCatV3.04B91 W/m2
09:29 66.8 °F 57.47 °F 29.90 in Calm   1 mph 72% 0 in WeatherCatV3.04B91 W/m2
09:34 66.9 °F 57.95 °F 29.90 in Calm     73% 0 in WeatherCatV3.04B91 W/m2
09:39 66.8 °F 57.86 °F 29.90 in Calm     73% 0 in WeatherCatV3.04B91 W/m2
09:44 66.9 °F 57.95 °F 29.90 in Calm   2 mph 73% 0 in WeatherCatV3.04B91 W/m2
09:49 67.3 °F 58.34 °F 29.90 in Calm     73% 0 in WeatherCatV3.04B91 W/m2
09:54 67.6 °F 58.63 °F 29.90 in Calm     73% 0 in WeatherCatV3.04B91 W/m2
09:59 67.9 °F 58.53 °F 29.91 in Calm     72% 0 in WeatherCatV3.04B91 W/m2
10:04 68.3 °F 58.91 °F 29.91 in Calm     72% 0 in WeatherCatV3.04B91 W/m2
10:09 68.4 °F 59.01 °F 29.91 in Calm     72% 0 in WeatherCatV3.04B91 W/m2
10:14 68.4 °F 58.62 °F 29.92 in Calm     71% 0 in WeatherCatV3.04B91 W/m2
10:19 68.6 °F 58.81 °F 29.92 in Calm     71% 0 in WeatherCatV3.04B91 W/m2
10:24 68.8 °F 59 °F 29.92 in Calm     71% 0 in WeatherCatV3.04B91 W/m2
10:28 69.1 °F 59.29 °F 29.92 in Calm     71% 0 in WeatherCatV3.04B91 W/m2
10:34 69.6 °F 59.77 °F 29.91 in Calm     71% 0 in WeatherCatV3.04B91 W/m2
10:39 69.9 °F 59.66 °F 29.91 in Calm   3 mph 70% 0 in WeatherCatV3.04B91 W/m2
10:44 70.1 °F 59.85 °F 29.91 in Calm     70% 0 in WeatherCatV3.04B91 W/m2
10:49 70.4 °F 60.14 °F 29.91 in Calm     70% 0 in WeatherCatV3.04B91 W/m2
10:54 70.6 °F 60.33 °F 29.91 in Calm     70% 0 in WeatherCatV3.04B91 W/m2
10:59 70.3 °F 59.64 °F 29.91 in Calm     69% 0 in WeatherCatV3.04B91 W/m2
11:04 70.1 °F 59.85 °F 29.91 in Calm     70% 0 in WeatherCatV3.04B91 W/m2
11:09 70.3 °F 60.44 °F 29.91 in West 3 mph 3 mph 71% 0 in WeatherCatV3.04B91 W/m2
11:14 70.4 °F 60.54 °F 29.90 in Calm     71% 0 in WeatherCatV3.04B91 W/m2
11:19 70.4 °F 60.14 °F 29.90 in Calm     70% 0 in WeatherCatV3.04B91 W/m2
11:24 70.8 °F 60.52 °F 29.90 in West 1 mph 1 mph 70% 0 in WeatherCatV3.04B91 W/m2
11:28 70.9 °F 61.01 °F 29.90 in Calm   5 mph 71% 0 in WeatherCatV3.04B91 W/m2
11:34 71.1 °F 60.81 °F 29.90 in Calm     70% 0 in WeatherCatV3.04B91 W/m2
11:39 71.3 °F 61 °F 29.90 in Calm   1 mph 70% 0 in WeatherCatV3.04B91 W/m2
11:44 71.1 °F 60.4 °F 29.90 in East 3 mph 3 mph 69% 0 in WeatherCatV3.04B91 W/m2
11:49 71.3 °F 60.59 °F 29.90 in Calm     69% 0 in WeatherCatV3.04B91 W/m2
11:54 71.5 °F 61.19 °F 29.90 in Calm   1 mph 70% 0 in WeatherCatV3.04B91 W/m2
11:59 71.6 °F 60.88 °F 29.90 in Calm     69% 0 in WeatherCatV3.04B91 W/m2
12:04 72.1 °F 61.35 °F 29.90 in Calm     69% 0 in WeatherCatV3.04B91 W/m2
12:09 72.3 °F 61.54 °F 29.90 in Calm     69% 0 in WeatherCatV3.04B91 W/m2
12:14 72.8 °F 61.61 °F 29.90 in Calm   2 mph 68% 0 in WeatherCatV3.04B91 W/m2
12:19 72.8 °F 61.19 °F 29.90 in Calm     67% 0 in WeatherCatV3.04B91 W/m2
12:24 73.2 °F 61.99 °F 29.90 in Calm     68% 0 in WeatherCatV3.04B91 W/m2
12:29 73.3 °F 61.66 °F 29.89 in West 3 mph 3 mph 67% 0 in WeatherCatV3.04B91 W/m2
12:34 73.7 °F 61.62 °F 29.89 in Calm     66% 0 in WeatherCatV3.04B91 W/m2
12:39 73.9 °F 61.81 °F 29.89 in WSW 1 mph 1 mph 66% 0 in WeatherCatV3.04B91 W/m2
12:44 73.9 °F 61.38 °F 29.89 in Calm   1 mph 65% 0 in WeatherCatV3.04B91 W/m2
12:49 73.7 °F 61.62 °F 29.89 in Calm   2 mph 66% 0 in WeatherCatV3.04B91 W/m2
12:54 73.9 °F 61.81 °F 29.89 in Calm     66% 0 in WeatherCatV3.04B91 W/m2
12:59 74 °F 61.9 °F 29.88 in Calm     66% 0 in WeatherCatV3.04B91 W/m2
13:04 74.4 °F 62.28 °F 29.88 in Calm     66% 0 in WeatherCatV3.04B91 W/m2
13:09 74.7 °F 63 °F 29.88 in Calm   3 mph 67% 0 in WeatherCatV3.04B91 W/m2
13:14 75.1 °F 62.51 °F 29.88 in Calm     65% 0 in WeatherCatV3.04B91 W/m2
13:19 75.6 °F 62.55 °F 29.88 in Calm   3 mph 64% 0 in WeatherCatV3.04B91 W/m2
13:24 75.6 °F 62.55 °F 29.88 in Calm     64% 0 in WeatherCatV3.04B91 W/m2
13:29 76 °F 62.02 °F 29.87 in Calm     62% 0 in WeatherCatV3.04B91 W/m2
13:34 76.1 °F 62.11 °F 29.87 in Calm     62% 0 in WeatherCatV3.04B91 W/m2
13:39 76.3 °F 61.84 °F 29.87 in Calm     61% 0 in WeatherCatV3.04B91 W/m2
13:44 76.8 °F 61.84 °F 29.87 in Calm     60% 0 in WeatherCatV3.04B91 W/m2
13:49 77.2 °F 62.22 °F 29.87 in ENE 5 mph 5 mph 60% 0 in WeatherCatV3.04B91 W/m2
13:54 77.2 °F 61.74 °F 29.87 in Calm   1 mph 59% 0 in WeatherCatV3.04B91 W/m2
13:59 77.4 °F 61.93 °F 29.86 in Calm   1 mph 59% 0 in WeatherCatV3.04B91 W/m2
14:04 78.3 °F 62.28 °F 29.86 in Calm   1 mph 58% 0 in WeatherCatV3.04B91 W/m2
14:09 78.5 °F 61.47 °F 29.86 in Calm     56% 0 in WeatherCatV3.04B91 W/m2
14:14 78.5 °F 60.97 °F 29.85 in Calm   10 mph 55% 0 in WeatherCatV3.04B91 W/m2
14:19 78.5 °F 59.92 °F 29.85 in Calm     53% 0 in WeatherCatV3.04B91 W/m2
14:24 79 °F 61.43 °F 29.85 in Calm   1 mph 55% 0 in WeatherCatV3.04B91 W/m2
14:29 79.4 °F 62.31 °F 29.85 in Calm   1 mph 56% 0 in WeatherCatV3.04B91 W/m2
14:34 79.9 °F 62.78 °F 29.85 in Calm     56% 0 in WeatherCatV3.04B91 W/m2
14:39 79.9 °F 62.26 °F 29.85 in Calm     55% 0 in WeatherCatV3.04B91 W/m2
14:44 80.1 °F 61.93 °F 29.84 in WSW 4 mph 10 mph 54% 0 in WeatherCatV3.04B91 W/m2
14:49 80.3 °F 62.11 °F 29.84 in Calm     54% 0 in WeatherCatV3.04B91 W/m2
14:54 80.3 °F 62.11 °F 29.84 in Calm     54% 0 in WeatherCatV3.04B91 W/m2
14:59 80.1 °F 61.4 °F 29.84 in Calm     53% 0 in WeatherCatV3.04B91 W/m2
15:04 80.3 °F 63.15 °F 29.84 in Calm   2 mph 56% 0 in WeatherCatV3.04B91 W/m2
15:09 80.5 °F 62.3 °F 29.84 in Calm   4 mph 54% 0 in WeatherCatV3.04B91 W/m2
15:14 80.7 °F 62.48 °F 29.83 in Calm     54% 0 in WeatherCatV3.04B91 W/m2
15:19 80.7 °F 62.48 °F 29.83 in Calm   1 mph 54% 0 in WeatherCatV3.04B91 W/m2
15:24 80.7 °F 62.48 °F 29.83 in SSE 1 mph 1 mph 54% 0 in WeatherCatV3.04B91 W/m2
15:29 80.9 °F 63.19 °F 29.82 in Calm   6 mph 55% 0 in WeatherCatV3.04B91 W/m2
15:34 80.9 °F 63.19 °F 29.82 in Calm     55% 0 in WeatherCatV3.04B91 W/m2
15:39 81.2 °F 62.41 °F 29.82 in Calm   9 mph 53% 0 in WeatherCatV3.04B91 W/m2
15:44 81.6 °F 63.32 °F 29.82 in SW 3 mph 4 mph 54% 0 in WeatherCatV3.04B91 W/m2
15:49 81.6 °F 64.36 °F 29.82 in Calm   3 mph 56% 0 in WeatherCatV3.04B91 W/m2
15:54 81.6 °F 63.32 °F 29.82 in Calm     54% 0 in WeatherCatV3.04B91 W/m2
15:59 81.4 °F 63.13 °F 29.81 in Calm     54% 0 in WeatherCatV3.04B91 W/m2
16:04 81.6 °F 63.84 °F 29.81 in Calm     55% 0 in WeatherCatV3.04B91 W/m2
16:09 81.8 °F 63.5 °F 29.81 in Calm     54% 0 in WeatherCatV3.04B91 W/m2
16:14 81.8 °F 64.03 °F 29.80 in Calm   1 mph 55% 0 in WeatherCatV3.04B91 W/m2
16:19 81.8 °F 64.54 °F 29.80 in Calm   2 mph 56% 0 in WeatherCatV3.04B91 W/m2
16:24 81.6 °F 63.32 °F 29.80 in SW 4 mph 6 mph 54% 0 in WeatherCatV3.04B91 W/m2
16:29 81.4 °F 64.17 °F 29.80 in Calm     56% 0 in WeatherCatV3.04B91 W/m2
16:34 81.2 °F 64.49 °F 29.80 in Calm   5 mph 57% 0 in WeatherCatV3.04B91 W/m2
16:39 80.9 °F 64.21 °F 29.80 in SSW 2 mph 5 mph 57% 0 in WeatherCatV3.04B91 W/m2
16:44 80.7 °F 63.52 °F 29.79 in Calm     56% 0 in WeatherCatV3.04B91 W/m2
16:49 80.7 °F 63.01 °F 29.79 in Calm   3 mph 55% 0 in WeatherCatV3.04B91 W/m2
16:54 80.5 °F 63.33 °F 29.79 in Calm     56% 0 in WeatherCatV3.04B91 W/m2
16:59 80.3 °F 63.65 °F 29.79 in Calm   5 mph 57% 0 in WeatherCatV3.04B91 W/m2
17:04 80.3 °F 64.15 °F 29.79 in Calm   1 mph 58% 0 in WeatherCatV3.04B91 W/m2
17:09 80.3 °F 63.65 °F 29.79 in Calm   1 mph 57% 0 in WeatherCatV3.04B91 W/m2
17:14 80.3 °F 64.15 °F 29.79 in Calm     58% 0 in WeatherCatV3.04B91 W/m2
17:19 80.1 °F 63.96 °F 29.79 in Calm     58% 0 in WeatherCatV3.04B91 W/m2
17:24 79.9 °F 63.28 °F 29.79 in Calm     57% 0 in WeatherCatV3.04B91 W/m2
17:29 79.8 °F 63.19 °F 29.77 in Calm     57% 0 in WeatherCatV3.04B91 W/m2
17:34 79.6 °F 63.5 °F 29.77 in Calm     58% 0 in WeatherCatV3.04B91 W/m2
17:39 79.6 °F 63.99 °F 29.77 in Calm     59% 0 in WeatherCatV3.04B91 W/m2
17:44 79.4 °F 63.8 °F 29.77 in Calm     59% 0 in WeatherCatV3.04B91 W/m2
17:49 79.4 °F 63.8 °F 29.77 in Calm     59% 0 in WeatherCatV3.04B91 W/m2
17:54 79.4 °F 64.28 °F 29.77 in Calm     60% 0 in WeatherCatV3.04B91 W/m2
17:59 79.2 °F 63.61 °F 29.77 in Calm   4 mph 59% 0 in WeatherCatV3.04B91 W/m2
18:04 79.2 °F 62.13 °F 29.77 in Calm   3 mph 56% 0 in WeatherCatV3.04B91 W/m2
18:09 79.2 °F 63.12 °F 29.77 in Calm     58% 0 in WeatherCatV3.04B91 W/m2
18:14 79.2 °F 63.61 °F 29.75 in Calm     59% 0 in WeatherCatV3.04B91 W/m2
18:19 79.2 °F 62.63 °F 29.75 in Calm     57% 0 in WeatherCatV3.04B91 W/m2
18:24 79 °F 61.94 °F 29.75 in Calm     56% 0 in WeatherCatV3.04B91 W/m2
18:29 79 °F 62.44 °F 29.75 in Calm     57% 0 in WeatherCatV3.04B91 W/m2
18:34 78.8 °F 62.75 °F 29.75 in Calm     58% 0 in WeatherCatV3.04B91 W/m2
18:39 78.6 °F 62.56 °F 29.75 in Calm   1 mph 58% 0 in WeatherCatV3.04B91 W/m2
18:44 78.5 °F 61.98 °F 29.74 in Calm     57% 0 in WeatherCatV3.04B91 W/m2
18:49 78.5 °F 61.98 °F 29.74 in Calm   1 mph 57% 0 in WeatherCatV3.04B91 W/m2
18:54 78.3 °F 62.28 °F 29.74 in Calm   4 mph 58% 0 in WeatherCatV3.04B91 W/m2
18:59 78.1 °F 62.58 °F 29.75 in Calm     59% 0 in WeatherCatV3.04B91 W/m2
19:04 78.1 °F 62.1 °F 29.75 in Calm   1 mph 58% 0 in WeatherCatV3.04B91 W/m2
19:09 77.9 °F 61.91 °F 29.75 in Calm     58% 0 in WeatherCatV3.04B91 W/m2
19:14 77.7 °F 61.72 °F 29.73 in Calm   1 mph 58% 0 in WeatherCatV3.04B91 W/m2
19:19 77.7 °F 62.21 °F 29.73 in Calm   1 mph 59% 0 in WeatherCatV3.04B91 W/m2
19:24 77.6 °F 62.11 °F 29.73 in SW 1 mph 2 mph 59% 0 in WeatherCatV3.04B91 W/m2
19:29 77.4 °F 61.93 °F 29.74 in Calm   1 mph 59% 0 in WeatherCatV3.04B91 W/m2
19:34 77.4 °F 62.4 °F 29.74 in Calm     60% 0 in WeatherCatV3.04B91 W/m2
19:39 77.2 °F 63.15 °F 29.74 in Calm     62% 0 in WeatherCatV3.04B91 W/m2
19:44 77 °F 63.42 °F 29.74 in Calm   2 mph 63% 0 in WeatherCatV3.04B91 W/m2
19:49 76.8 °F 63.68 °F 29.74 in Calm     64% 0 in WeatherCatV3.04B91 W/m2
19:54 76.7 °F 64.03 °F 29.74 in Calm   3 mph 65% 0 in WeatherCatV3.04B91 W/m2
19:59 76.7 °F 64.03 °F 29.75 in Calm     65% 0 in WeatherCatV3.04B91 W/m2
20:04 76.5 °F 64.28 °F 29.75 in Calm     66% 0 in WeatherCatV3.04B91 W/m2
20:09 76.3 °F 64.52 °F 29.75 in Calm   1 mph 67% 0 in WeatherCatV3.04B91 W/m2
20:14 76.3 °F 64.94 °F 29.73 in Calm     68% 0 in WeatherCatV3.04B91 W/m2
20:19 76.1 °F 64.75 °F 29.73 in Calm     68% 0 in WeatherCatV3.04B91 W/m2
20:24 76 °F 65.08 °F 29.73 in Calm     69% 0 in WeatherCatV3.04B91 W/m2
20:29 75.8 °F 64.89 °F 29.73 in Calm   3 mph 69% 0 in WeatherCatV3.04B91 W/m2
20:34 75.8 °F 65.3 °F 29.73 in Calm     70% 0 in WeatherCatV3.04B91 W/m2
20:39 75.6 °F 65.52 °F 29.73 in Calm   1 mph 71% 0 in WeatherCatV3.04B91 W/m2
20:44 75.4 °F 65.32 °F 29.73 in Calm   1 mph 71% 0 in WeatherCatV3.04B91 W/m2
20:49 75.3 °F 65.63 °F 29.73 in Calm     72% 0 in WeatherCatV3.04B91 W/m2
20:54 75.3 °F 65.63 °F 29.73 in Calm   1 mph 72% 0 in WeatherCatV3.04B91 W/m2
20:59 75.1 °F 65.44 °F 29.73 in Calm     72% 0 in WeatherCatV3.04B91 W/m2
21:04 75.1 °F 65.84 °F 29.73 in Calm     73% 0 in WeatherCatV3.04B91 W/m2
21:09 74.9 °F 65.64 °F 29.73 in Calm     73% 0 in WeatherCatV3.04B91 W/m2
21:14 74.9 °F 66.04 °F 29.72 in Calm     74% 0 in WeatherCatV3.04B91 W/m2
21:19 74.7 °F 65.84 °F 29.72 in Calm     74% 0 in WeatherCatV3.04B91 W/m2
21:24 74.6 °F 66.14 °F 29.72 in Calm     75% 0 in WeatherCatV3.04B91 W/m2
21:29 74.6 °F 66.14 °F 29.73 in Calm     75% 0 in WeatherCatV3.04B91 W/m2
21:34 74.4 °F 66.33 °F 29.73 in Calm     76% 0 in WeatherCatV3.04B91 W/m2
21:39 74.2 °F 66.13 °F 29.73 in Calm     76% 0 in WeatherCatV3.04B91 W/m2
21:44 74 °F 66.32 °F 29.73 in Calm     77% 0 in WeatherCatV3.04B91 W/m2
21:49 73.9 °F 66.22 °F 29.73 in Calm     77% 0 in WeatherCatV3.04B91 W/m2
21:54 73.9 °F 66.22 °F 29.73 in Calm     77% 0 in WeatherCatV3.04B91 W/m2
21:59 73.9 °F 66.22 °F 29.72 in Calm     77% 0 in WeatherCatV3.04B91 W/m2
22:04 73.9 °F 66.22 °F 29.72 in Calm     77% 0 in WeatherCatV3.04B91 W/m2
22:09 73.7 °F 66.03 °F 29.72 in Calm     77% 0 in WeatherCatV3.04B91 W/m2
22:14 73.7 °F 66.03 °F 29.75 in Calm     77% 0 in WeatherCatV3.04B91 W/m2
22:19 73.7 °F 66.03 °F 29.75 in Calm   2 mph 77% 0 in WeatherCatV3.04B91 W/m2
22:24 73.7 °F 66.03 °F 29.75 in Calm   3 mph 77% 0 in WeatherCatV3.04B91 W/m2
22:29 73.9 °F 66.22 °F 29.76 in SW 4 mph 4 mph 77% 0 in WeatherCatV3.04B91 W/m2
22:34 73.9 °F 66.22 °F 29.76 in Calm     77% 0 in WeatherCatV3.04B91 W/m2
22:39 73.7 °F 66.77 °F 29.76 in Calm   4 mph 79% 0 in WeatherCatV3.04B91 W/m2
22:44 73.2 °F 66.65 °F 29.80 in Calm   1 mph 80% 0 in WeatherCatV3.04B91 W/m2
22:49 72.5 °F 66.33 °F 29.80 in Calm   10 mph 81% 0 in WeatherCatV3.04B91 W/m2
22:54 71.6 °F 66.15 °F 29.80 in Calm   10 mph 83% 0.1 in WeatherCatV3.04B91 W/m2
22:59 70.3 °F 65.23 °F 29.80 in Calm   9 mph 84% 0.95 in WeatherCatV3.04B91 W/m2
23:04 69.1 °F 65.06 °F 29.80 in WSW 4 mph 6 mph 87% 0.47 in WeatherCatV3.04B91 W/m2
23:09 68.1 °F 64.73 °F 29.80 in Calm   3 mph 89% 0.29 in WeatherCatV3.04B91 W/m2
23:14 67.6 °F 64.87 °F 29.81 in Calm   1 mph 91% 0.39 in WeatherCatV3.04B91 W/m2
23:19 67.1 °F 64.69 °F 29.81 in SW 1 mph 6 mph 92% 1.47 in WeatherCatV3.04B91 W/m2
23:24 66.8 °F 64.71 °F 29.81 in Calm     93% 1.68 in WeatherCatV3.04B91 W/m2
23:29 66.4 °F 64.31 °F 29.79 in Calm     93% 0.29 in WeatherCatV3.04B91 W/m2
23:34 66.1 °F 64.32 °F 29.79 in Calm   1 mph 94% 0.52 in WeatherCatV3.04B91 W/m2
23:39 65.5 °F 63.72 °F 29.79 in Calm     94% 0.47 in WeatherCatV3.04B91 W/m2
23:44 65 °F 63.23 °F 29.79 in Calm     94% 0.17 in WeatherCatV3.04B91 W/m2
23:49 64.8 °F 63.33 °F 29.79 in Calm     95% 0.1 in WeatherCatV3.04B91 W/m2
23:54 64.8 °F 63.33 °F 29.79 in Calm     95% 0.05 in WeatherCatV3.04B91 W/m2
23:59 64.7 °F 63.23 °F 29.77 in Calm     95% 0.04 in WeatherCatV3.04B91 W/m2
Bellevue, Nebraska, USA
Compliments of Weather Underground - 3.25 mb